Time;durP1;ratioP1;P1;durP2;ratioP2;P2;SDS_P1;SDS_P2;PMS_P1;PMS_P2;Temp;Humidity;BMP_temperature;BMP_pressure;BME280_temperature;BME280_humidity;BME280_pressure;Samples;Min_cycle;Max_cycle;Signal;HPM_P1;HPM_P2
2023/08/04 04:02:10;;;;;;;1.00;0.90;;;16.90;97.30;;;;;;5228813;23;20499;-88
2023/08/04 04:04:35;;;;;;;1.37;1.27;;;16.90;97.30;;;;;;4938412;29;20480;-88
2023/08/04 04:07:00;;;;;;;3.90;1.20;;;16.90;97.30;;;;;;4938012;29;20192;-88
2023/08/04 04:09:26;;;;;;;0.97;0.90;;;17.00;97.30;;;;;;4938529;29;20184;-88
2023/08/04 04:11:52;;;;;;;1.33;1.23;;;17.00;97.30;;;;;;4937864;29;20622;-88
2023/08/04 04:14:17;;;;;;;1.00;0.90;;;17.00;97.30;;;;;;4961879;23;20241;-71
2023/08/04 04:16:43;;;;;;;1.20;1.10;;;17.00;97.30;;;;;;4936268;29;20176;-71
2023/08/04 04:19:08;;;;;;;1.60;1.20;;;17.00;97.30;;;;;;4934890;29;20379;-71
2023/08/04 04:21:34;;;;;;;1.30;1.20;;;17.00;97.30;;;;;;4935161;29;20683;-71
2023/08/04 04:23:59;;;;;;;24.53;2.50;;;17.00;97.30;;;;;;4935769;29;20179;-71
2023/08/04 04:26:25;;;;;;;1.23;1.13;;;17.00;97.30;;;;;;4936109;29;20852;-71
2023/08/04 04:28:50;;;;;;;1.00;0.90;;;17.00;97.30;;;;;;4934347;29;20656;-71
2023/08/04 04:31:16;;;;;;;1.33;1.23;;;17.10;97.30;;;;;;4931879;29;20202;-71
2023/08/04 04:33:42;;;;;;;1.30;1.20;;;17.10;97.30;;;;;;4934524;29;20210;-71
2023/08/04 04:36:07;;;;;;;1.00;0.90;;;17.10;97.30;;;;;;4934619;29;20194;-71
2023/08/04 04:38:33;;;;;;;1.63;1.20;;;17.10;97.30;;;;;;4936337;29;20210;-71
2023/08/04 04:41:02;;;;;;;1.00;0.90;;;17.10;97.30;;;;;;4934711;29;20266;-71
2023/08/04 04:43:29;;;;;;;0.93;0.80;;;17.10;97.30;;;;;;4936142;29;20231;-71
2023/08/04 04:45:55;;;;;;;1.10;1.00;;;17.10;97.30;;;;;;4934466;29;20431;-71
2023/08/04 04:48:23;;;;;;;1.03;0.93;;;17.10;97.30;;;;;;4932816;29;20439;-71
2023/08/04 04:50:50;;;;;;;1.80;1.60;;;17.10;97.30;;;;;;4931048;29;20532;-71
2023/08/04 04:53:16;;;;;;;1.00;0.90;;;17.10;97.30;;;;;;4928676;29;20932;-71
2023/08/04 04:55:42;;;;;;;1.00;0.90;;;17.10;97.30;;;;;;4929174;29;20474;-71
2023/08/04 04:58:08;;;;;;;1.30;1.20;;;17.10;97.30;;;;;;4929052;29;20322;-71
2023/08/04 05:00:37;;;;;;;0.80;0.70;;;17.10;97.30;;;;;;4929032;29;20719;-72
2023/08/04 05:03:08;;;;;;;2.60;1.67;;;17.10;97.30;;;;;;4928472;29;20195;-72
2023/08/04 05:05:35;;;;;;;0.90;0.80;;;17.10;97.30;;;;;;4930170;29;20514;-72
2023/08/04 05:08:00;;;;;;;1.13;1.03;;;17.10;97.30;;;;;;4931321;29;20471;-71
2023/08/04 05:10:26;;;;;;;1.70;1.23;;;17.10;97.30;;;;;;4932140;29;20955;-72
2023/08/04 05:12:53;;;;;;;1.00;0.90;;;17.10;97.30;;;;;;4919622;28;1535757;-73
2023/08/04 05:15:19;;;;;;;1.10;1.00;;;17.10;97.30;;;;;;4925578;29;20471;-71
2023/08/04 05:17:44;;;;;;;1.40;1.20;;;17.10;97.30;;;;;;4932988;29;20180;-72
2023/08/04 05:20:13;;;;;;;1.23;1.20;;;17.10;97.30;;;;;;4931534;29;20191;-71
2023/08/04 05:22:43;;;;;;;1.17;1.07;;;17.10;97.30;;;;;;4935259;29;20268;-71
2023/08/04 05:25:09;;;;;;;1.00;1.00;;;17.10;97.30;;;;;;4933154;29;20420;-71
2023/08/04 05:27:34;;;;;;;1.30;1.17;;;17.10;97.30;;;;;;4931772;29;20435;-71
2023/08/04 05:30:01;;;;;;;1.10;1.00;;;17.10;97.30;;;;;;4930490;29;20188;-72
2023/08/04 05:32:27;;;;;;;4.27;2.33;;;17.10;97.30;;;;;;4929238;29;20271;-72
2023/08/04 05:34:52;;;;;;;1.73;1.00;;;17.10;97.30;;;;;;4939636;29;20967;-71
2023/08/04 05:37:18;;;;;;;1.03;0.93;;;17.10;97.30;;;;;;4932815;29;20431;-71
2023/08/04 05:39:43;;;;;;;1.10;1.00;;;17.10;97.30;;;;;;4933611;29;20594;-71
2023/08/04 05:42:11;;;;;;;2.70;2.30;;;17.10;97.30;;;;;;4943840;29;20552;-71
2023/08/04 05:44:36;;;;;;;1.03;0.93;;;17.10;97.30;;;;;;4933434;29;20183;-72
2023/08/04 05:47:02;;;;;;;1.00;0.90;;;17.10;97.30;;;;;;4937517;29;20808;-71
2023/08/04 05:49:27;;;;;;;1.10;1.00;;;17.10;97.30;;;;;;4935166;28;20536;-71
2023/08/04 05:51:53;;;;;;;1.27;1.10;;;17.10;97.30;;;;;;4933315;29;20204;-70
2023/08/04 05:54:19;;;;;;;1.40;1.20;;;17.10;97.30;;;;;;4932336;29;20610;-70
2023/08/04 05:56:44;;;;;;;1.30;1.10;;;17.10;97.30;;;;;;4932928;29;20182;-72
2023/08/04 05:59:10;;;;;;;1.47;1.40;;;17.10;97.30;;;;;;4931817;29;20183;-71
2023/08/04 06:01:35;;;;;;;1.77;1.40;;;17.10;97.30;;;;;;4929753;29;20218;-71
2023/08/04 06:04:01;;;;;;;1.93;1.87;;;17.10;97.30;;;;;;4929726;29;20206;-71
2023/08/04 06:06:27;;;;;;;1.10;1.00;;;17.10;97.30;;;;;;4930193;29;20428;-69
2023/08/04 06:08:53;;;;;;;1.27;1.17;;;17.20;97.30;;;;;;4928867;29;20184;-71
2023/08/04 06:11:18;;;;;;;2.10;1.20;;;17.20;97.30;;;;;;4928753;29;20462;-71
2023/08/04 06:13:44;;;;;;;1.13;1.03;;;17.20;97.30;;;;;;4929827;29;20234;-71
2023/08/04 06:16:09;;;;;;;1.43;1.23;;;17.20;97.30;;;;;;4930376;29;20652;-71
2023/08/04 06:18:35;;;;;;;0.90;0.80;;;17.20;97.30;;;;;;4928618;29;20640;-73
2023/08/04 06:21:00;;;;;;;1.37;1.27;;;17.20;97.30;;;;;;4928476;29;20235;-71
2023/08/04 06:23:26;;;;;;;1.30;1.20;;;17.20;97.30;;;;;;4930154;29;20648;-71
2023/08/04 06:25:51;;;;;;;1.13;1.07;;;17.30;97.30;;;;;;4932455;29;20679;-70
2023/08/04 06:28:18;;;;;;;1.17;1.07;;;17.30;97.30;;;;;;4932191;29;20667;-71
2023/08/04 06:30:43;;;;;;;1.60;1.50;;;17.20;97.30;;;;;;4930966;29;20552;-71
2023/08/04 06:33:09;;;;;;;1.20;1.10;;;17.30;97.30;;;;;;4930871;29;20447;-70
2023/08/04 06:35:34;;;;;;;2.30;1.43;;;17.30;97.30;;;;;;4932516;29;20612;-71
2023/08/04 06:38:00;;;;;;;1.10;1.00;;;17.30;97.30;;;;;;4932055;29;20755;-71
2023/08/04 06:40:26;;;;;;;2.20;1.10;;;17.30;97.30;;;;;;4932516;29;20574;-71
2023/08/04 06:42:53;;;;;;;1.33;1.23;;;17.40;97.30;;;;;;4931315;29;20794;-70
2023/08/04 06:45:18;;;;;;;2.23;2.13;;;17.40;97.30;;;;;;4931911;29;20567;-69
2023/08/04 06:47:44;;;;;;;2.40;1.37;;;17.40;97.30;;;;;;4932202;29;20503;-72
2023/08/04 06:50:10;;;;;;;3.33;1.20;;;17.40;97.30;;;;;;4930420;29;20391;-72
2023/08/04 06:52:35;;;;;;;1.60;1.50;;;17.40;97.30;;;;;;4932187;29;20690;-72
2023/08/04 06:55:01;;;;;;;1.30;1.20;;;17.50;97.30;;;;;;4929986;29;20703;-71
2023/08/04 06:57:27;;;;;;;1.10;1.00;;;17.50;97.30;;;;;;4930282;29;20184;-72
2023/08/04 06:59:52;;;;;;;5.00;2.40;;;17.50;97.30;;;;;;4931332;29;20207;-71
2023/08/04 07:02:18;;;;;;;1.60;1.07;;;17.50;97.30;;;;;;4930329;29;20207;-70
2023/08/04 07:04:43;;;;;;;2.50;2.07;;;17.40;97.30;;;;;;4931874;29;20187;-72
2023/08/04 07:07:09;;;;;;;2.63;2.00;;;17.40;97.30;;;;;;4931605;29;20199;-71
2023/08/04 07:09:34;;;;;;;1.30;1.20;;;17.50;97.30;;;;;;4931988;29;20191;-71
2023/08/04 07:12:00;;;;;;;2.70;1.87;;;17.50;97.30;;;;;;4931660;29;20208;-72
2023/08/04 07:14:26;;;;;;;1.20;1.10;;;17.50;97.30;;;;;;4930763;29;20715;-72
2023/08/04 07:16:51;;;;;;;5.33;1.53;;;17.50;97.30;;;;;;4930820;29;20275;-74
2023/08/04 07:19:17;;;;;;;1.10;1.00;;;17.50;97.30;;;;;;4931251;29;20271;-72
2023/08/04 07:21:44;;;;;;;6.43;1.40;;;17.50;97.30;;;;;;4931144;29;20706;-74
2023/08/04 07:24:09;;;;;;;1.43;1.33;;;17.40;97.30;;;;;;4928637;29;20180;-66
2023/08/04 07:26:35;;;;;;;1.40;1.30;;;17.40;97.30;;;;;;4929835;29;20430;-71
2023/08/04 07:29:01;;;;;;;1.40;1.30;;;17.40;97.30;;;;;;4930011;29;20195;-71
2023/08/04 07:31:27;;;;;;;1.10;1.00;;;17.30;97.30;;;;;;4929549;29;20212;-71
2023/08/04 07:33:52;;;;;;;1.70;1.53;;;17.30;97.30;;;;;;4929781;29;20604;-72
2023/08/04 07:36:18;;;;;;;5.90;2.80;;;17.30;97.30;;;;;;4930997;29;20836;-72
2023/08/04 07:38:44;;;;;;;3.33;1.93;;;17.30;97.30;;;;;;4931332;29;20220;-72
2023/08/04 07:41:17;;;;;;;2.20;1.10;;;17.30;97.30;;;;;;4929711;29;20215;-71
2023/08/04 07:43:42;;;;;;;1.30;1.20;;;17.30;97.30;;;;;;4929877;29;20209;-71
2023/08/04 07:46:17;;;;;;;1.90;1.73;;;17.30;97.30;;;;;;4929683;29;20755;-72
2023/08/04 07:48:43;;;;;;;2.30;1.30;;;17.30;97.30;;;;;;4931343;29;20182;-71
2023/08/04 07:51:08;;;;;;;1.57;1.47;;;17.20;97.30;;;;;;4929611;29;20444;-72
2023/08/04 07:53:34;;;;;;;1.77;1.20;;;17.20;97.30;;;;;;4931307;29;20184;-73
2023/08/04 07:55:59;;;;;;;1.10;1.00;;;17.20;97.30;;;;;;4930654;29;20183;-71
2023/08/04 07:58:25;;;;;;;2.23;2.10;;;17.20;97.30;;;;;;4931122;29;20199;-70
2023/08/04 08:00:51;;;;;;;1.37;1.13;;;17.30;97.30;;;;;;4931068;29;20587;-70
2023/08/04 08:03:16;;;;;;;6.00;1.33;;;17.30;97.30;;;;;;4929594;29;20675;-71
2023/08/04 08:05:42;;;;;;;2.43;2.23;;;17.40;97.30;;;;;;4931688;29;20536;-70
2023/08/04 08:08:08;;;;;;;1.63;1.60;;;17.50;97.30;;;;;;4929758;29;20199;-71
2023/08/04 08:10:34;;;;;;;2.77;2.13;;;17.50;97.30;;;;;;4929704;29;20302;-70
2023/08/04 08:12:59;;;;;;;1.90;1.83;;;17.60;97.30;;;;;;4930734;29;20529;-71
2023/08/04 08:15:25;;;;;;;1.77;1.10;;;17.60;97.30;;;;;;4929318;29;20207;-70
2023/08/04 08:17:51;;;;;;;1.23;1.13;;;17.60;97.30;;;;;;4929848;29;20219;-70
2023/08/04 08:20:16;;;;;;;3.10;2.00;;;17.60;97.30;;;;;;4930955;29;20263;-69
2023/08/04 08:22:42;;;;;;;2.10;1.10;;;17.60;97.30;;;;;;4930974;29;20192;-70
2023/08/04 08:25:10;;;;;;;2.10;1.97;;;17.60;97.30;;;;;;4931573;29;20188;-69
2023/08/04 08:27:35;;;;;;;2.30;1.63;;;17.70;97.30;;;;;;4933267;29;20184;-71
2023/08/04 08:30:01;;;;;;;4.27;1.60;;;17.70;97.30;;;;;;4930188;29;20823;-70
2023/08/04 08:32:26;;;;;;;1.60;1.40;;;17.70;97.30;;;;;;4930495;29;20688;-70
2023/08/04 08:34:52;;;;;;;1.27;1.27;;;17.80;97.30;;;;;;4934179;29;20751;-70
2023/08/04 08:37:17;;;;;;;1.37;1.30;;;17.80;97.30;;;;;;4934135;29;20188;-70
2023/08/04 08:39:43;;;;;;;1.57;1.47;;;17.80;97.30;;;;;;4932598;29;20180;-70
2023/08/04 08:42:08;;;;;;;13.90;1.93;;;17.70;97.30;;;;;;4934230;29;20402;-70
2023/08/04 08:44:34;;;;;;;2.47;2.27;;;17.70;97.30;;;;;;4934114;29;20715;-69
2023/08/04 08:47:00;;;;;;;3.63;2.87;;;17.70;97.30;;;;;;4932921;29;20226;-70
2023/08/04 08:49:34;;;;;;;1.33;1.23;;;17.70;97.30;;;;;;4932636;29;20192;-71
2023/08/04 08:52:00;;;;;;;1.57;1.53;;;17.70;97.30;;;;;;4934403;29;20210;-69
2023/08/04 08:54:27;;;;;;;2.47;2.17;;;17.80;97.30;;;;;;4932751;29;20844;-69
2023/08/04 08:56:54;;;;;;;5.63;1.83;;;17.80;97.30;;;;;;4932805;29;20428;-70
2023/08/04 08:59:20;;;;;;;4.50;1.40;;;17.80;97.30;;;;;;4933971;29;20478;-69
2023/08/04 09:01:46;;;;;;;1.53;1.23;;;17.80;97.30;;;;;;4932775;29;20498;-69
2023/08/04 09:04:12;;;;;;;1.40;1.30;;;17.80;97.30;;;;;;4932550;29;20440;-69
2023/08/04 09:06:38;;;;;;;1.63;1.53;;;17.80;97.30;;;;;;4934305;29;20470;-69
2023/08/04 09:09:05;;;;;;;1.37;0.97;;;17.80;97.30;;;;;;4932748;29;20455;-69
2023/08/04 09:11:30;;;;;;;1.33;1.23;;;17.80;97.30;;;;;;4932744;29;20235;-69
2023/08/04 09:13:56;;;;;;;3.23;1.53;;;17.90;97.30;;;;;;4934037;29;20996;-67
2023/08/04 09:16:32;;;;;;;1.10;1.00;;;17.80;97.30;;;;;;4933833;29;20710;-68
2023/08/04 09:19:04;;;;;;;1.33;1.23;;;17.90;97.30;;;;;;4932466;29;20506;-69
2023/08/04 09:21:30;;;;;;;2.50;1.53;;;17.90;97.30;;;;;;4933574;29;20447;-68
2023/08/04 09:23:55;;;;;;;1.20;1.10;;;18.00;97.30;;;;;;4933631;29;20423;-70
2023/08/04 09:26:21;;;;;;;1.43;1.30;;;18.00;97.30;;;;;;4933392;29;20190;-69
2023/08/04 09:29:03;;;;;;;1.03;1.00;;;18.00;97.30;;;;;;4933848;29;20184;-69
2023/08/04 09:31:34;;;;;;;1.20;1.10;;;18.00;97.30;;;;;;4933506;29;20727;-69
2023/08/04 09:34:03;;;;;;;1.20;1.10;;;18.00;97.30;;;;;;4932221;29;20921;-69
2023/08/04 09:36:28;;;;;;;1.00;0.90;;;18.00;97.30;;;;;;4935056;29;20519;-69
2023/08/04 09:39:01;;;;;;;1.20;1.10;;;18.10;97.30;;;;;;4932111;29;20502;-69
2023/08/04 09:41:27;;;;;;;5.90;1.33;;;18.10;97.30;;;;;;4924255;29;20228;-69
2023/08/04 09:43:53;;;;;;;1.13;0.80;;;18.20;97.30;;;;;;4931263;29;20920;-69
2023/08/04 09:46:18;;;;;;;1.20;1.10;;;18.30;97.30;;;;;;4931862;29;20194;-68
2023/08/04 09:48:44;;;;;;;0.97;0.87;;;18.40;97.30;;;;;;4931002;29;20184;-69
2023/08/04 09:51:14;;;;;;;2.63;1.57;;;18.50;97.30;;;;;;4931600;29;20218;-68
2023/08/04 09:53:46;;;;;;;0.70;0.70;;;18.60;97.30;;;;;;4931747;29;20188;-68
2023/08/04 09:56:16;;;;;;;1.10;1.10;;;18.80;97.30;;;;;;4932787;29;20420;-69
2023/08/04 09:58:42;;;;;;;2.00;1.10;;;18.90;97.30;;;;;;4932000;29;20432;-69
2023/08/04 10:01:07;;;;;;;2.30;1.27;;;19.00;97.30;;;;;;4932664;29;20446;-68
2023/08/04 10:03:34;;;;;;;1.17;1.00;;;19.10;97.30;;;;;;4932747;29;20420;-68
2023/08/04 10:06:03;;;;;;;1.20;1.10;;;19.20;97.30;;;;;;4931468;29;20620;-68
2023/08/04 10:08:36;;;;;;;1.13;1.03;;;19.40;97.30;;;;;;4932646;29;20510;-68
2023/08/04 10:11:02;;;;;;;1.10;1.00;;;19.50;97.30;;;;;;4932439;29;20526;-68
2023/08/04 10:13:33;;;;;;;0.90;0.80;;;19.60;97.30;;;;;;4942573;23;20479;-90
2023/08/04 10:16:02;;;;;;;1.30;1.17;;;19.70;97.30;;;;;;4932755;29;20431;-90
2023/08/04 10:18:49;;;;;;;1.37;1.27;;;19.80;97.30;;;;;;4932972;29;20415;-90
2023/08/04 10:21:17;;;;;;;1.33;1.20;;;19.80;97.30;;;;;;4932836;29;20412;-91
2023/08/04 10:23:43;;;;;;;1.23;1.13;;;19.90;97.30;;;;;;4925395;29;20444;-90
2023/08/04 10:26:12;;;;;;;3.60;3.40;;;19.90;97.30;;;;;;4933063;29;20415;-90
2023/08/04 10:29:05;;;;;;;2.93;1.43;;;19.90;97.30;;;;;;4938547;23;20257;-70
2023/08/04 10:31:57;;;;;;;1.50;1.40;;;19.90;97.30;;;;;;4933849;29;20464;-69
2023/08/04 10:34:37;;;;;;;1.43;1.40;;;20.10;97.30;;;;;;4930872;29;20517;-70
2023/08/04 10:37:12;;;;;;;0.93;0.83;;;20.10;97.30;;;;;;4931971;29;20423;-69
2023/08/04 10:39:44;;;;;;;1.47;1.37;;;20.20;97.30;;;;;;4931141;29;20431;-72
2023/08/04 10:42:14;;;;;;;1.10;1.00;;;20.40;97.30;;;;;;4932320;29;21102;-70
2023/08/04 10:44:54;;;;;;;0.97;0.87;;;20.50;97.30;;;;;;4938799;29;20424;-71
2023/08/04 10:47:40;;;;;;;2.07;1.40;;;20.50;97.30;;;;;;4944834;28;20787;-68
2023/08/04 10:50:06;;;;;;;6.13;1.23;;;20.50;97.30;;;;;;4940456;28;20419;-68
2023/08/04 10:52:33;;;;;;;11.70;1.20;;;20.50;97.30;;;;;;4934850;28;20420;-69
2023/08/04 10:54:59;;;;;;;1.60;1.50;;;20.60;97.30;;;;;;4942412;29;20477;-68
2023/08/04 10:57:28;;;;;;;3.57;1.67;;;20.70;97.30;;;;;;4937874;29;20431;-68
2023/08/04 10:59:54;;;;;;;1.00;0.90;;;20.80;97.30;;;;;;4926473;29;20177;-71
2023/08/04 11:02:21;;;;;;;2.37;1.00;;;20.80;97.30;;;;;;4919828;29;20440;-69
2023/08/04 11:04:48;;;;;;;0.90;0.80;;;20.90;97.30;;;;;;4917785;29;20479;-69
2023/08/04 11:07:17;;;;;;;1.20;1.20;;;20.80;97.30;;;;;;4919251;29;20412;-70
2023/08/04 11:09:45;;;;;;;1.10;0.80;;;20.90;97.30;;;;;;4914244;29;20424;-71
2023/08/04 11:12:11;;;;;;;2.03;1.20;;;20.90;97.30;;;;;;4925111;29;20493;-68
2023/08/04 11:14:38;;;;;;;1.33;1.27;;;20.90;97.30;;;;;;4925049;29;20482;-70
2023/08/04 11:17:11;;;;;;;1.73;1.57;;;21.00;97.30;;;;;;4922078;29;20982;-70
2023/08/04 11:19:37;;;;;;;1.10;1.10;;;21.00;97.30;;;;;;4925953;29;20415;-67
2023/08/04 11:22:11;;;;;;;1.10;1.00;;;21.20;97.30;;;;;;4917640;29;20796;-67
2023/08/04 11:24:36;;;;;;;1.40;1.30;;;21.30;97.30;;;;;;4920462;29;20557;-67
2023/08/04 11:27:02;;;;;;;1.43;1.30;;;21.40;97.30;;;;;;4922816;29;20934;-67
2023/08/04 11:29:28;;;;;;;0.90;0.80;;;21.50;97.30;;;;;;4924069;29;20683;-68
2023/08/04 11:31:53;;;;;;;1.73;1.13;;;21.50;97.30;;;;;;4930311;29;20199;-66
2023/08/04 11:34:19;;;;;;;0.90;0.80;;;21.60;97.30;;;;;;4931152;29;20751;-67
2023/08/04 11:36:45;;;;;;;2.40;1.40;;;21.70;96.90;;;;;;4928262;29;20695;-70
2023/08/04 11:39:11;;;;;;;1.60;1.50;;;21.80;97.30;;;;;;4928155;29;20184;-67
2023/08/04 11:41:36;;;;;;;8.50;1.10;;;22.00;97.30;;;;;;4929321;29;20975;-68
2023/08/04 11:44:03;;;;;;;1.30;1.20;;;22.00;97.30;;;;;;4929653;29;20679;-67
2023/08/04 11:46:29;;;;;;;1.53;1.13;;;22.00;97.30;;;;;;4930388;29;20190;-66
2023/08/04 11:48:55;;;;;;;1.37;1.27;;;22.00;96.10;;;;;;4931211;29;20419;-66
2023/08/04 11:51:21;;;;;;;0.90;0.83;;;22.00;96.50;;;;;;4928776;29;20759;-66
2023/08/04 11:53:48;;;;;;;2.17;2.00;;;22.00;96.80;;;;;;4924814;29;20202;-65
2023/08/04 11:56:14;;;;;;;1.20;1.17;;;22.10;97.30;;;;;;4926251;29;20416;-66
2023/08/04 11:58:41;;;;;;;1.60;1.50;;;22.30;97.30;;;;;;4929787;29;20422;-66
2023/08/04 12:01:28;;;;;;;2.60;1.30;;;22.30;95.60;;;;;;4929316;29;20192;-66
2023/08/04 12:03:54;;;;;;;1.93;1.87;;;22.30;95.90;;;;;;4931788;29;20927;-66
2023/08/04 12:06:22;;;;;;;1.17;1.10;;;22.20;95.60;;;;;;4929545;29;20433;-65
2023/08/04 12:08:59;;;;;;;1.93;1.30;;;22.20;95.30;;;;;;4933051;29;20188;-67
2023/08/04 12:11:27;;;;;;;1.63;1.47;;;22.10;95.30;;;;;;4930259;29;20801;-66
2023/08/04 12:14:05;;;;;;;1.00;0.90;;;22.00;95.20;;;;;;4932198;29;20423;-70
2023/08/04 12:16:30;;;;;;;1.53;1.30;;;21.80;93.70;;;;;;4935228;29;20427;-67
2023/08/04 12:19:05;;;;;;;2.50;1.43;;;21.70;94.30;;;;;;4937618;29;20967;-66
2023/08/04 12:21:31;;;;;;;1.20;1.13;;;21.70;94.90;;;;;;4934372;28;20210;-66
2023/08/04 12:23:56;;;;;;;1.30;1.17;;;21.70;95.30;;;;;;4930074;29;20802;-67
2023/08/04 12:26:22;;;;;;;12.23;1.10;;;21.90;95.60;;;;;;4934324;29;20188;-66
2023/08/04 12:28:47;;;;;;;0.93;0.90;;;22.10;95.10;;;;;;4933444;29;20239;-67
2023/08/04 12:31:13;;;;;;;1.00;0.90;;;22.20;95.70;;;;;;4933357;29;20262;-67
2023/08/04 12:33:38;;;;;;;1.00;0.90;;;22.40;94.40;;;;;;4930255;29;20320;-66
2023/08/04 12:36:04;;;;;;;1.13;1.00;;;22.60;93.90;;;;;;4937951;29;20196;-66
2023/08/04 12:38:30;;;;;;;1.10;1.00;;;22.70;93.20;;;;;;4931771;29;20278;-66
2023/08/04 12:40:56;;;;;;;1.00;0.90;;;22.80;92.80;;;;;;4932483;29;20755;-67
2023/08/04 12:43:22;;;;;;;1.60;1.30;;;22.70;91.90;;;;;;4933121;29;20426;-67
2023/08/04 12:45:48;;;;;;;0.97;0.87;;;22.70;92.20;;;;;;4932127;29;20431;-67
2023/08/04 12:48:13;;;;;;;2.07;1.30;;;22.60;92.10;;;;;;4931848;29;20187;-67
2023/08/04 12:50:39;;;;;;;1.93;1.53;;;22.60;91.70;;;;;;4933537;29;20203;-66
2023/08/04 12:53:04;;;;;;;0.77;0.70;;;22.50;91.60;;;;;;4933454;29;20254;-67
2023/08/04 12:55:30;;;;;;;1.00;0.90;;;22.50;92.40;;;;;;4932974;29;20691;-66
2023/08/04 12:57:55;;;;;;;1.00;0.90;;;22.50;92.30;;;;;;4930080;29;20192;-66
2023/08/04 13:00:21;;;;;;;1.10;0.90;;;22.70;92.80;;;;;;4929569;29;20188;-66
2023/08/04 13:02:47;;;;;;;1.03;0.93;;;23.00;92.40;;;;;;4931969;29;20172;-69
2023/08/04 13:05:13;;;;;;;0.90;0.80;;;23.20;90.70;;;;;;4932662;29;20188;-68
2023/08/04 13:07:40;;;;;;;1.10;1.00;;;23.50;90.60;;;;;;4931634;29;20184;-67
2023/08/04 13:10:06;;;;;;;1.00;0.90;;;23.80;91.20;;;;;;4931364;29;20427;-67
2023/08/04 13:12:31;;;;;;;1.10;1.07;;;24.00;89.40;;;;;;4932501;29;20530;-67
2023/08/04 13:14:57;;;;;;;1.00;0.90;;;24.00;88.80;;;;;;4932813;29;20557;-67
2023/08/04 13:17:23;;;;;;;0.87;0.83;;;24.20;89.20;;;;;;4931988;29;20313;-67
2023/08/04 13:19:48;;;;;;;0.93;0.90;;;24.40;89.40;;;;;;4931527;29;20183;-67
2023/08/04 13:22:14;;;;;;;0.90;0.90;;;24.50;86.60;;;;;;4931675;29;20683;-67
2023/08/04 13:24:39;;;;;;;0.77;0.73;;;24.60;85.70;;;;;;4931547;29;20630;-67
2023/08/04 13:27:07;;;;;;;1.37;1.30;;;24.70;88.40;;;;;;4933181;29;20678;-67
2023/08/04 13:29:33;;;;;;;0.90;0.80;;;24.80;84.80;;;;;;4932368;29;20184;-67
2023/08/04 13:31:58;;;;;;;1.00;0.90;;;24.90;85.10;;;;;;4932923;29;20447;-70
2023/08/04 13:34:24;;;;;;;1.27;1.17;;;25.00;85.20;;;;;;4931006;29;20535;-68
2023/08/04 13:36:49;;;;;;;1.03;0.80;;;24.90;84.40;;;;;;4936402;29;20180;-67
2023/08/04 13:39:15;;;;;;;1.00;0.90;;;24.60;84.00;;;;;;4929771;29;20183;-68
2023/08/04 13:41:40;;;;;;;1.20;0.90;;;24.40;84.80;;;;;;4931057;29;20207;-68
2023/08/04 13:44:06;;;;;;;1.07;0.97;;;24.20;85.50;;;;;;4929763;29;20220;-68
2023/08/04 13:46:31;;;;;;;1.20;1.10;;;24.00;86.40;;;;;;4928774;29;20183;-68
2023/08/04 13:48:57;;;;;;;1.33;1.13;;;23.90;87.00;;;;;;4930545;28;20207;-67
2023/08/04 13:51:23;;;;;;;5.90;1.10;;;23.90;87.50;;;;;;4925675;29;20216;-68
2023/08/04 13:53:48;;;;;;;1.60;1.10;;;24.00;86.40;;;;;;4926981;29;20239;-69
2023/08/04 13:56:15;;;;;;;0.90;0.80;;;24.20;86.40;;;;;;4927916;29;20191;-68
2023/08/04 13:58:40;;;;;;;1.07;0.97;;;24.20;84.40;;;;;;4927253;29;20181;-67
2023/08/04 14:01:06;;;;;;;1.20;1.10;;;24.30;85.50;;;;;;4929441;29;20447;-69
2023/08/04 14:03:31;;;;;;;0.90;0.80;;;24.20;84.50;;;;;;4926104;29;20226;-68
2023/08/04 14:05:57;;;;;;;1.00;0.90;;;24.20;84.30;;;;;;4931810;29;20188;-68
2023/08/04 14:08:22;;;;;;;0.93;0.83;;;24.20;85.00;;;;;;4928960;28;20187;-67
2023/08/04 14:10:48;;;;;;;1.00;0.90;;;24.00;84.10;;;;;;4930745;29;20476;-68
2023/08/04 14:13:14;;;;;;;1.10;1.00;;;23.90;84.30;;;;;;4930041;29;20179;-67
2023/08/04 14:15:40;;;;;;;2.70;2.03;;;23.80;85.10;;;;;;4927482;29;20302;-68
2023/08/04 14:18:05;;;;;;;1.10;1.10;;;23.80;85.70;;;;;;4925989;29;20680;-68
2023/08/04 14:20:31;;;;;;;0.87;0.83;;;23.70;84.50;;;;;;4932144;29;20832;-68
2023/08/04 14:22:56;;;;;;;1.30;1.20;;;23.60;84.40;;;;;;4924013;29;20236;-68
2023/08/04 14:25:22;;;;;;;1.30;1.20;;;23.50;85.10;;;;;;4922804;29;20188;-68
2023/08/04 14:27:48;;;;;;;1.03;0.93;;;23.50;85.40;;;;;;4924283;29;20231;-69
2023/08/04 14:30:13;;;;;;;1.47;1.37;;;23.40;85.40;;;;;;4930916;29;20176;-69
2023/08/04 14:32:41;;;;;;;4.53;0.90;;;23.40;85.40;;;;;;4921446;29;20188;-68
2023/08/04 14:35:07;;;;;;;1.00;0.90;;;23.40;84.90;;;;;;4922165;29;20215;-68
2023/08/04 14:37:33;;;;;;;1.97;1.87;;;23.30;85.00;;;;;;4929797;29;20499;-68
2023/08/04 14:39:58;;;;;;;1.00;0.90;;;23.20;86.10;;;;;;4923897;29;20522;-68
2023/08/04 14:42:24;;;;;;;1.20;1.10;;;23.20;86.00;;;;;;4934051;29;21567;-68
2023/08/04 14:44:49;;;;;;;0.87;0.83;;;23.20;85.70;;;;;;4935609;29;20234;-68
2023/08/04 14:47:15;;;;;;;1.40;1.10;;;23.10;84.90;;;;;;4935615;29;20184;-68
2023/08/04 14:49:41;;;;;;;1.23;1.13;;;23.10;85.10;;;;;;4938014;29;20315;-67
2023/08/04 14:52:07;;;;;;;1.13;1.03;;;23.00;84.80;;;;;;4934671;29;20196;-68
2023/08/04 14:54:32;;;;;;;1.87;1.10;;;23.00;85.20;;;;;;4941244;29;20207;-67
2023/08/04 14:56:58;;;;;;;0.77;0.73;;;23.00;85.10;;;;;;4934857;29;20444;-67
2023/08/04 14:59:24;;;;;;;2.10;1.13;;;23.00;85.50;;;;;;4936540;29;20176;-67
2023/08/04 15:01:49;;;;;;;1.40;0.90;;;23.00;85.50;;;;;;4936885;28;20672;-67
2023/08/04 15:04:15;;;;;;;1.00;0.90;;;23.00;87.50;;;;;;4935007;29;20767;-70
2023/08/04 15:06:40;;;;;;;0.90;0.80;;;23.00;86.70;;;;;;4937712;29;20172;-68
2023/08/04 15:09:07;;;;;;;7.13;1.63;;;23.00;86.20;;;;;;4938241;29;20198;-68
2023/08/04 15:11:33;;;;;;;0.90;0.80;;;23.00;85.10;;;;;;4931332;29;20206;-68
2023/08/04 15:13:59;;;;;;;1.07;0.97;;;23.00;85.60;;;;;;4937745;28;20447;-67
2023/08/04 15:16:25;;;;;;;2.20;0.97;;;23.00;86.60;;;;;;4940539;28;20279;-67
2023/08/04 15:18:50;;;;;;;1.03;0.93;;;23.00;87.00;;;;;;4936356;29;20979;-68
2023/08/04 15:21:16;;;;;;;0.80;0.80;;;23.00;86.30;;;;;;4936085;28;20200;-67
2023/08/04 15:23:43;;;;;;;1.40;1.30;;;23.00;86.00;;;;;;4934618;29;20184;-67
2023/08/04 15:26:09;;;;;;;1.10;0.97;;;22.90;85.70;;;;;;4938584;29;20259;-68
2023/08/04 15:28:35;;;;;;;1.30;1.20;;;22.90;86.30;;;;;;4936818;29;20467;-67
2023/08/04 15:31:04;;;;;;;1.20;1.00;;;23.00;86.30;;;;;;4936222;29;20501;-68
2023/08/04 15:33:32;;;;;;;1.23;0.80;;;23.00;86.10;;;;;;4935533;29;20616;-69
2023/08/04 15:35:58;;;;;;;2.20;1.40;;;23.00;86.50;;;;;;4935927;29;20872;-67
2023/08/04 15:38:23;;;;;;;0.90;0.80;;;23.00;85.90;;;;;;4937551;29;20486;-68
2023/08/04 15:40:59;;;;;;;1.20;1.07;;;23.00;86.20;;;;;;4938680;28;20282;-68
2023/08/04 15:43:25;;;;;;;0.80;0.70;;;23.00;85.70;;;;;;4935170;29;20249;-67
2023/08/04 15:45:51;;;;;;;1.00;0.90;;;23.00;85.60;;;;;;4935697;29;20458;-69
2023/08/04 15:48:16;;;;;;;1.30;1.20;;;23.00;85.20;;;;;;4933890;29;20734;-69
2023/08/04 15:50:42;;;;;;;1.00;0.90;;;23.00;85.20;;;;;;4935125;28;20754;-67
2023/08/04 15:53:07;;;;;;;0.87;0.80;;;23.00;85.20;;;;;;4935791;29;20184;-67
2023/08/04 15:55:33;;;;;;;1.17;0.97;;;23.20;85.60;;;;;;4935199;29;20207;-67
2023/08/04 15:57:58;;;;;;;1.87;1.30;;;23.40;85.20;;;;;;4938041;29;20238;-67
2023/08/04 16:00:24;;;;;;;2.57;1.60;;;23.70;85.10;;;;;;4934111;29;20204;-67
2023/08/04 16:02:49;;;;;;;2.10;1.10;;;24.10;84.30;;;;;;4937740;28;20176;-67
2023/08/04 16:05:15;;;;;;;2.93;1.23;;;24.20;84.70;;;;;;4940747;29;20186;-66
2023/08/04 16:07:40;;;;;;;1.00;0.90;;;24.30;83.70;;;;;;4938335;29;20570;-68
2023/08/04 16:10:07;;;;;;;0.90;0.80;;;24.50;83.90;;;;;;4940402;28;20267;-66
2023/08/04 16:12:34;;;;;;;1.00;0.90;;;24.60;83.10;;;;;;4937711;29;20195;-69
2023/08/04 16:15:03;;;;;;;1.40;1.00;;;24.60;83.60;;;;;;4927909;29;20463;-69
2023/08/04 16:17:28;;;;;;;0.90;0.80;;;24.50;83.10;;;;;;4944333;23;20889;-73
2023/08/04 16:19:54;;;;;;;0.90;0.80;;;24.40;81.60;;;;;;4931425;29;20412;-73
2023/08/04 16:22:19;;;;;;;0.80;0.70;;;24.20;81.60;;;;;;4934114;29;20274;-72
2023/08/04 16:24:46;;;;;;;1.20;1.10;;;24.10;83.40;;;;;;4929528;28;20184;-73
2023/08/04 16:27:12;;;;;;;1.00;0.90;;;24.00;83.60;;;;;;4930854;29;20176;-73
2023/08/04 16:29:38;;;;;;;1.50;1.40;;;24.00;84.00;;;;;;4938919;29;20429;-73
2023/08/04 16:32:04;;;;;;;2.10;2.00;;;24.00;84.90;;;;;;4943007;28;20456;-74
2023/08/04 16:34:29;;;;;;;0.90;0.80;;;24.10;85.60;;;;;;4911806;29;20737;-74
2023/08/04 16:36:55;;;;;;;1.53;1.20;;;24.20;85.20;;;;;;4915338;29;20557;-75
2023/08/04 16:39:21;;;;;;;0.90;0.80;;;24.40;84.80;;;;;;4918612;29;20188;-73
2023/08/04 16:41:47;;;;;;;1.30;1.20;;;24.40;82.80;;;;;;4930108;29;20192;-74
2023/08/04 16:44:12;;;;;;;0.90;0.80;;;24.30;83.00;;;;;;4932728;29;20237;-73